Time,TemperatureF,DewpointF,PressureIn,WindDirection,WindDirectionDegrees,WindSpeedMPH,WindSpeedGustMPH,Humidity,HourlyPrecipIn,Conditions,Clouds,dailyrainin,SoftwareType,DateUTC
2013-01-14 00:05:00,34.4,23.8,30.17,North,4,3.0,4.0,65,0.00,,,0.00,Wunderground v.1.15,2013-01-14 06:05:00,
2013-01-14 00:10:00,34.3,23.7,30.18,North,1,1.0,1.0,65,0.00,,,0.00,Wunderground v.1.15,2013-01-14 06:10:00,
2013-01-14 00:20:00,34.0,23.5,30.18,North,3,0.0,0.0,65,0.00,,,0.00,Wunderground v.1.15,2013-01-14 06:20:00,
2013-01-14 00:25:00,33.8,23.3,30.18,North,4,0.0,0.0,65,0.00,,,0.00,Wunderground v.1.15,2013-01-14 06:25:00,
2013-01-14 00:35:00,33.7,23.5,30.18,NNE,20,0.0,0.0,66,0.00,,,0.00,Wunderground v.1.15,2013-01-14 06:35:00,
2013-01-14 00:40:00,33.7,23.5,30.18,North,6,0.0,0.0,66,0.00,,,0.00,Wunderground v.1.15,2013-01-14 06:40:00,
2013-01-14 00:50:00,33.5,23.0,30.19,NNE,23,2.0,2.0,65,0.00,,,0.00,Wunderground v.1.15,2013-01-14 06:50:00,
2013-01-14 00:55:00,33.5,23.0,30.19,North,8,2.0,12.0,65,0.00,,,0.00,Wunderground v.1.15,2013-01-14 06:55:00,
2013-01-14 01:05:00,33.4,22.9,30.19,North,1,2.0,3.0,65,0.00,,,0.00,Wunderground v.1.15,2013-01-14 07:05:00,
2013-01-14 01:10:00,33.2,22.7,30.19,North,359,0.0,0.0,65,0.00,,,0.00,Wunderground v.1.15,2013-01-14 07:10:00,
2013-01-14 01:20:00,33.1,22.6,30.19,North,0,2.0,3.0,65,0.00,,,0.00,Wunderground v.1.15,2013-01-14 07:20:00,
2013-01-14 01:25:00,32.9,22.4,30.18,North,359,4.0,4.0,65,0.00,,,0.00,Wunderground v.1.15,2013-01-14 07:25:00,
2013-01-14 01:35:00,32.8,23.0,30.19,NNE,17,3.0,5.0,67,0.00,,,0.00,Wunderground v.1.15,2013-01-14 07:35:00,
2013-01-14 01:40:00,32.7,22.6,30.20,North,0,3.0,4.0,66,0.00,,,0.00,Wunderground v.1.15,2013-01-14 07:40:00,
2013-01-14 01:50:00,32.5,22.4,30.20,North,0,4.0,4.0,66,0.00,,,0.00,Wunderground v.1.15,2013-01-14 07:50:00,
2013-01-14 01:55:00,32.5,22.8,30.20,North,349,4.0,6.0,67,0.00,,,0.00,Wunderground v.1.15,2013-01-14 07:55:00,
2013-01-14 02:05:00,32.5,22.8,30.20,NNW,344,4.0,7.0,67,0.00,,,0.00,Wunderground v.1.15,2013-01-14 08:05:00,
2013-01-14 02:10:00,32.4,22.7,30.19,NNE,23,3.0,13.0,67,0.00,,,0.00,Wunderground v.1.15,2013-01-14 08:10:00,
2013-01-14 02:20:00,32.4,22.3,30.20,North,356,5.0,5.0,66,0.00,,,0.00,Wunderground v.1.15,2013-01-14 08:20:00,
2013-01-14 02:25:00,32.4,22.3,30.20,North,0,4.0,5.0,66,0.00,,,0.00,Wunderground v.1.15,2013-01-14 08:25:00,
2013-01-14 02:35:00,32.4,22.7,30.20,North,359,4.0,8.0,67,0.00,,,0.00,Wunderground v.1.15,2013-01-14 08:35:00,
2013-01-14 02:40:00,32.4,22.3,30.20,North,3,6.0,10.0,66,0.00,,,0.00,Wunderground v.1.15,2013-01-14 08:40:00,
2013-01-14 02:50:00,32.4,22.7,30.20,North,0,7.0,7.0,67,0.00,,,0.00,Wunderground v.1.15,2013-01-14 08:50:00,
2013-01-14 02:55:00,32.4,22.7,30.20,North,349,6.0,13.0,67,0.00,,,0.00,Wunderground v.1.15,2013-01-14 08:55:00,
2013-01-14 03:05:00,32.4,22.3,30.20,North,354,8.0,8.0,66,0.00,,,0.00,Wunderground v.1.15,2013-01-14 09:05:00,
2013-01-14 03:10:00,32.4,22.3,30.21,NNW,332,9.0,10.0,66,0.00,,,0.00,Wunderground v.1.15,2013-01-14 09:10:00,
2013-01-14 03:20:00,32.4,22.7,30.22,NNW,333,7.0,7.0,67,0.00,,,0.00,Wunderground v.1.15,2013-01-14 09:20:00,
2013-01-14 03:25:00,32.4,22.3,30.21,North,354,6.0,7.0,66,0.00,,,0.00,Wunderground v.1.15,2013-01-14 09:25:00,
2013-01-14 03:35:00,32.2,22.1,30.21,North,359,7.0,11.0,66,0.00,,,0.00,Wunderground v.1.15,2013-01-14 09:35:00,
2013-01-14 03:40:00,32.2,22.5,30.21,North,0,8.0,8.0,67,0.00,,,0.00,Wunderground v.1.15,2013-01-14 09:40:00,
2013-01-14 03:50:00,32.1,22.4,30.21,NNW,344,7.0,12.0,67,0.00,,,0.00,Wunderground v.1.15,2013-01-14 09:50:00,
2013-01-14 03:55:00,32.1,22.4,30.20,NNW,346,6.0,12.0,67,0.00,,,0.00,Wunderground v.1.15,2013-01-14 09:55:00,
2013-01-14 04:05:00,31.9,22.2,30.21,North,0,8.0,8.0,67,0.00,,,0.00,Wunderground v.1.15,2013-01-14 10:05:00,
2013-01-14 04:10:00,31.9,22.2,30.21,North,356,6.0,7.0,67,0.00,,,0.00,Wunderground v.1.15,2013-01-14 10:10:00,
2013-01-14 04:20:00,31.8,21.7,30.20,North,1,8.0,8.0,66,0.00,,,0.00,Wunderground v.1.15,2013-01-14 10:20:00,
2013-01-14 04:25:00,31.8,21.7,30.20,North,3,6.0,8.0,66,0.00,,,0.00,Wunderground v.1.15,2013-01-14 10:25:00,
2013-01-14 04:35:00,31.8,22.1,30.20,North,356,5.0,6.0,67,0.00,,,0.00,Wunderground v.1.15,2013-01-14 10:35:00,
2013-01-14 04:40:00,31.8,21.7,30.20,North,0,5.0,11.0,66,0.00,,,0.00,Wunderground v.1.15,2013-01-14 10:40:00,
2013-01-14 04:50:00,31.8,22.1,30.20,North,4,7.0,9.0,67,0.00,,,0.00,Wunderground v.1.15,2013-01-14 10:50:00,
2013-01-14 04:55:00,31.8,22.1,30.19,North,0,7.0,9.0,67,0.00,,,0.00,Wunderground v.1.15,2013-01-14 10:55:00,
2013-01-14 05:05:00,31.6,21.5,30.19,North,357,8.0,17.0,66,0.00,,,0.00,Wunderground v.1.15,2013-01-14 11:05:00,
2013-01-14 05:10:00,31.6,21.9,30.19,North,3,8.0,8.0,67,0.00,,,0.00,Wunderground v.1.15,2013-01-14 11:10:00,
2013-01-14 05:20:00,31.8,22.4,30.19,North,350,6.0,11.0,68,0.00,,,0.00,Wunderground v.1.15,2013-01-14 11:20:00,
2013-01-14 05:25:00,31.6,21.9,30.19,North,0,6.0,11.0,67,0.00,,,0.00,Wunderground v.1.15,2013-01-14 11:25:00,
2013-01-14 05:35:00,31.6,22.2,30.20,North,354,4.0,6.0,68,0.00,,,0.00,Wunderground v.1.15,2013-01-14 11:35:00,
2013-01-14 05:40:00,31.6,22.2,30.20,North,350,6.0,6.0,68,0.00,,,0.00,Wunderground v.1.15,2013-01-14 11:40:00,
2013-01-14 05:50:00,31.6,22.6,30.21,North,349,3.0,4.0,69,0.00,,,0.00,Wunderground v.1.15,2013-01-14 11:50:00,
2013-01-14 05:55:00,31.6,22.2,30.20,NNW,344,7.0,9.0,68,0.00,,,0.00,Wunderground v.1.15,2013-01-14 11:55:00,
2013-01-14 06:05:00,31.6,22.6,30.20,North,0,7.0,12.0,69,0.00,,,0.00,Wunderground v.1.15,2013-01-14 12:05:00,
2013-01-14 06:10:00,31.5,22.5,30.20,NNW,344,7.0,12.0,69,0.00,,,0.00,Wunderground v.1.15,2013-01-14 12:10:00,
2013-01-14 06:20:00,31.5,22.5,30.20,North,0,7.0,7.0,69,0.00,,,0.00,Wunderground v.1.15,2013-01-14 12:20:00,
2013-01-14 06:25:00,31.5,22.5,30.21,North,359,5.0,7.0,69,0.00,,,0.00,Wunderground v.1.15,2013-01-14 12:25:00,
2013-01-14 06:35:00,31.5,22.8,30.22,North,356,5.0,9.0,70,0.00,,,0.00,Wunderground v.1.15,2013-01-14 12:35:00,
2013-01-14 06:40:00,31.5,22.8,30.22,North,0,4.0,4.0,70,0.00,,,0.00,Wunderground v.1.15,2013-01-14 12:40:00,
2013-01-14 06:50:00,31.5,22.5,30.22,North,359,5.0,7.0,69,0.00,,,0.00,Wunderground v.1.15,2013-01-14 12:50:00,
2013-01-14 06:55:00,31.5,22.8,30.22,North,0,4.0,7.0,70,0.00,,,0.00,Wunderground v.1.15,2013-01-14 12:55:00,
2013-01-14 07:05:00,31.3,22.3,30.22,North,3,6.0,12.0,69,0.00,,,0.00,Wunderground v.1.15,2013-01-14 13:05:00,
2013-01-14 07:10:00,31.5,23.2,30.22,North,349,3.0,8.0,71,0.00,,,0.00,Wunderground v.1.15,2013-01-14 13:10:00,
2013-01-14 07:20:00,31.3,22.6,30.23,North,356,5.0,7.0,70,0.00,,,0.00,Wunderground v.1.15,2013-01-14 13:20:00,
2013-01-14 07:25:00,31.3,22.6,30.23,North,350,7.0,7.0,70,0.00,,,0.00,Wunderground v.1.15,2013-01-14 13:25:00,
2013-01-14 07:35:00,31.5,22.8,30.23,North,0,5.0,6.0,70,0.00,,,0.00,Wunderground v.1.15,2013-01-14 13:35:00,
2013-01-14 07:40:00,31.5,23.2,30.23,North,354,4.0,10.0,71,0.00,,,0.00,Wunderground v.1.15,2013-01-14 13:40:00,
2013-01-14 07:50:00,31.5,23.2,30.23,North,0,7.0,7.0,71,0.00,,,0.00,Wunderground v.1.15,2013-01-14 13:50:00,
2013-01-14 07:55:00,31.5,23.2,30.23,North,0,6.0,7.0,71,0.00,,,0.00,Wunderground v.1.15,2013-01-14 13:55:00,
2013-01-14 08:05:00,31.5,23.2,30.23,North,359,4.0,5.0,71,0.00,,,0.00,Wunderground v.1.15,2013-01-14 14:05:00,
2013-01-14 08:10:00,31.6,23.3,30.24,North,0,3.0,6.0,71,0.00,,,0.00,Wunderground v.1.15,2013-01-14 14:10:00,
2013-01-14 08:20:00,31.6,23.3,30.24,North,1,3.0,3.0,71,0.00,,,0.00,Wunderground v.1.15,2013-01-14 14:20:00,
2013-01-14 08:25:00,31.8,23.5,30.24,NNW,343,4.0,9.0,71,0.00,,,0.00,Wunderground v.1.15,2013-01-14 14:25:00,
2013-01-14 08:35:00,31.9,23.6,30.24,North,357,6.0,12.0,71,0.00,,,0.00,Wunderground v.1.15,2013-01-14 14:35:00,
2013-01-14 08:40:00,31.9,23.6,30.25,North,3,6.0,10.0,71,0.00,,,0.00,Wunderground v.1.15,2013-01-14 14:40:00,
2013-01-14 08:50:00,32.2,23.8,30.25,North,349,2.0,2.0,71,0.00,,,0.00,Wunderground v.1.15,2013-01-14 14:50:00,
2013-01-14 08:55:00,32.5,23.8,30.25,North,3,3.0,3.0,70,0.00,,,0.00,Wunderground v.1.15,2013-01-14 14:55:00,
2013-01-14 09:05:00,32.5,23.8,30.25,NNE,13,6.0,6.0,70,0.00,,,0.00,Wunderground v.1.15,2013-01-14 15:05:00,
2013-01-14 09:10:00,32.5,24.1,30.25,North,0,6.0,6.0,71,0.00,,,0.00,Wunderground v.1.15,2013-01-14 15:10:00,
2013-01-14 09:20:00,32.7,24.3,30.25,North,7,4.0,4.0,71,0.00,,,0.00,Wunderground v.1.15,2013-01-14 15:20:00,
2013-01-14 09:25:00,32.8,24.4,30.25,North,0,5.0,5.0,71,0.00,,,0.00,Wunderground v.1.15,2013-01-14 15:25:00,
2013-01-14 09:35:00,33.1,24.7,30.25,NE,37,6.0,10.0,71,0.00,,,0.00,Wunderground v.1.15,2013-01-14 15:35:00,
2013-01-14 09:40:00,33.1,24.0,30.26,North,0,5.0,6.0,69,0.00,,,0.00,Wunderground v.1.15,2013-01-14 15:40:00,
2013-01-14 09:50:00,33.4,25.0,30.26,North,0,5.0,5.0,71,0.00,,,0.00,Wunderground v.1.15,2013-01-14 15:50:00,
2013-01-14 09:55:00,33.7,25.3,30.26,North,359,3.0,5.0,71,0.00,,,0.00,Wunderground v.1.15,2013-01-14 15:55:00,
2013-01-14 10:05:00,34.1,25.0,30.27,North,359,3.0,6.0,69,0.00,,,0.00,Wunderground v.1.15,2013-01-14 16:05:00,
2013-01-14 10:10:00,34.6,25.1,30.27,North,7,3.0,3.0,68,0.00,,,0.00,Wunderground v.1.15,2013-01-14 16:10:00,
2013-01-14 10:20:00,35.5,25.3,30.26,North,0,3.0,3.0,66,0.00,,,0.00,Wunderground v.1.15,2013-01-14 16:20:00,
2013-01-14 10:25:00,35.9,25.3,30.26,NNE,14,4.0,8.0,65,0.00,,,0.00,Wunderground v.1.15,2013-01-14 16:25:00,
2013-01-14 10:35:00,35.9,25.6,30.26,North,4,5.0,11.0,66,0.00,,,0.00,Wunderground v.1.15,2013-01-14 16:35:00,
2013-01-14 10:40:00,36.2,25.6,30.26,NNE,20,6.0,6.0,65,0.00,,,0.00,Wunderground v.1.15,2013-01-14 16:40:00,
2013-01-14 10:50:00,36.9,25.9,30.26,NNE,14,4.0,4.0,64,0.00,,,0.00,Wunderground v.1.15,2013-01-14 16:50:00,
2013-01-14 10:55:00,37.5,26.0,30.25,NNE,31,5.0,10.0,63,0.00,,,0.00,Wunderground v.1.15,2013-01-14 16:55:00,
2013-01-14 11:05:00,38.6,26.7,30.24,NNE,18,8.0,9.0,62,0.00,,,0.00,Wunderground v.1.15,2013-01-14 17:05:00,
2013-01-14 11:10:00,39.3,26.6,30.24,NNE,31,7.0,7.0,60,0.00,,,0.00,Wunderground v.1.15,2013-01-14 17:10:00,
2013-01-14 11:20:00,40.6,27.8,30.23,North,0,11.0,11.0,60,0.00,,,0.00,Wunderground v.1.15,2013-01-14 17:20:00,
2013-01-14 11:25:00,40.9,27.7,30.23,NNE,18,6.0,11.0,59,0.00,,,0.00,Wunderground v.1.15,2013-01-14 17:25:00,
2013-01-14 11:35:00,41.3,27.2,30.23,NNW,346,5.0,10.0,57,0.00,,,0.00,Wunderground v.1.15,2013-01-14 17:35:00,
2013-01-14 11:40:00,41.5,27.4,30.22,NNW,343,5.0,7.0,57,0.00,,,0.00,Wunderground v.1.15,2013-01-14 17:40:00,
2013-01-14 11:50:00,42.1,26.6,30.21,NNE,32,5.0,5.0,54,0.00,,,0.00,Wunderground v.1.15,2013-01-14 17:50:00,
2013-01-14 11:55:00,42.5,27.9,30.21,NNE,18,3.0,7.0,56,0.00,,,0.00,Wunderground v.1.15,2013-01-14 17:55:00,
2013-01-14 12:05:00,43.3,26.4,30.20,North,0,5.0,10.0,51,0.00,,,0.00,Wunderground v.1.15,2013-01-14 18:05:00,
2013-01-14 12:10:00,43.5,27.9,30.20,North,0,6.0,6.0,54,0.00,,,0.00,Wunderground v.1.15,2013-01-14 18:10:00,
2013-01-14 12:20:00,43.8,27.8,30.19,NE,42,6.0,7.0,53,0.00,,,0.00,Wunderground v.1.15,2013-01-14 18:20:00,
2013-01-14 12:25:00,44.1,28.0,30.18,NNE,28,5.0,7.0,53,0.00,,,0.00,Wunderground v.1.15,2013-01-14 18:25:00,
2013-01-14 12:35:00,44.5,28.0,30.17,NNE,30,4.0,5.0,52,0.00,,,0.00,Wunderground v.1.15,2013-01-14 18:35:00,
2013-01-14 12:40:00,44.9,28.3,30.17,North,0,6.0,7.0,52,0.00,,,0.00,Wunderground v.1.15,2013-01-14 18:40:00,
2013-01-14 12:50:00,45.5,28.9,30.17,NNE,18,2.0,2.0,52,0.00,,,0.00,Wunderground v.1.15,2013-01-14 18:50:00,
2013-01-14 12:55:00,45.8,28.2,30.16,North,359,1.0,2.0,50,0.00,,,0.00,Wunderground v.1.15,2013-01-14 18:55:00,
2013-01-14 13:05:00,46.2,28.6,30.16,North,0,5.0,11.0,50,0.00,,,0.00,Wunderground v.1.15,2013-01-14 19:05:00,
2013-01-14 13:10:00,46.7,30.0,30.16,North,6,5.0,5.0,52,0.00,,,0.00,Wunderground v.1.15,2013-01-14 19:10:00,
2013-01-14 13:20:00,47.3,29.1,30.15,NE,52,3.0,3.0,49,0.00,,,0.00,Wunderground v.1.15,2013-01-14 19:20:00,
2013-01-14 13:25:00,47.1,28.4,30.15,NE,49,2.0,3.0,48,0.00,,,0.00,Wunderground v.1.15,2013-01-14 19:25:00,
2013-01-14 13:35:00,47.3,30.1,30.14,NE,48,3.0,12.0,51,0.00,,,0.00,Wunderground v.1.15,2013-01-14 19:35:00,
2013-01-14 13:40:00,48.0,28.7,30.14,NNE,23,2.0,2.0,47,0.00,,,0.00,Wunderground v.1.15,2013-01-14 19:40:00,
2013-01-14 13:50:00,48.0,28.2,30.14,North,8,3.0,9.0,46,0.00,,,0.00,Wunderground v.1.15,2013-01-14 19:50:00,
2013-01-14 13:55:00,48.2,29.9,30.14,North,0,2.0,9.0,49,0.00,,,0.00,Wunderground v.1.15,2013-01-14 19:55:00,
2013-01-14 14:05:00,48.3,29.5,30.14,North,1,2.0,3.0,48,0.00,,,0.00,Wunderground v.1.15,2013-01-14 20:05:00,
2013-01-14 14:10:00,48.2,29.4,30.13,North,359,1.0,1.0,48,0.00,,,0.00,Wunderground v.1.15,2013-01-14 20:10:00,
2013-01-14 14:20:00,48.6,29.3,30.13,NNE,20,1.0,1.0,47,0.00,,,0.00,Wunderground v.1.15,2013-01-14 20:20:00,
2013-01-14 14:25:00,48.5,29.7,30.13,NNE,18,2.0,2.0,48,0.00,,,0.00,Wunderground v.1.15,2013-01-14 20:25:00,
2013-01-14 14:35:00,48.9,30.6,30.12,North,353,1.0,5.0,49,0.00,,,0.00,Wunderground v.1.15,2013-01-14 20:35:00,
2013-01-14 14:40:00,49.2,29.8,30.13,NNE,14,1.0,1.0,47,0.00,,,0.00,Wunderground v.1.15,2013-01-14 20:40:00,
2013-01-14 14:50:00,49.5,29.6,30.12,NNE,18,0.0,0.0,46,0.00,,,0.00,Wunderground v.1.15,2013-01-14 20:50:00,
2013-01-14 14:55:00,49.8,30.4,30.12,North,352,1.0,3.0,47,0.00,,,0.00,Wunderground v.1.15,2013-01-14 20:55:00,
2013-01-14 15:05:00,49.4,31.0,30.12,NE,40,2.0,2.0,49,0.00,,,0.00,Wunderground v.1.15,2013-01-14 21:05:00,
2013-01-14 15:10:00,49.1,29.2,30.12,NE,38,1.0,1.0,46,0.00,,,0.00,Wunderground v.1.15,2013-01-14 21:10:00,
2013-01-14 15:20:00,49.2,29.3,30.12,NNE,31,1.0,1.0,46,0.00,,,0.00,Wunderground v.1.15,2013-01-14 21:20:00,
2013-01-14 15:25:00,49.2,29.3,30.12,NNE,31,1.0,1.0,46,0.00,,,0.00,Wunderground v.1.15,2013-01-14 21:25:00,
2013-01-14 15:35:00,48.3,29.0,30.12,North,11,1.0,1.0,47,0.00,,,0.00,Wunderground v.1.15,2013-01-14 21:35:00,
2013-01-14 15:40:00,48.0,28.7,30.12,NNE,28,2.0,2.0,47,0.00,,,0.00,Wunderground v.1.15,2013-01-14 21:40:00,
2013-01-14 15:50:00,47.3,29.6,30.13,NNE,14,1.0,1.0,50,0.00,,,0.00,Wunderground v.1.15,2013-01-14 21:50:00,
2013-01-14 15:55:00,47.1,29.4,30.13,NNE,28,2.0,6.0,50,0.00,,,0.00,Wunderground v.1.15,2013-01-14 21:55:00,
2013-01-14 16:05:00,46.5,28.8,30.13,NE,34,3.0,5.0,50,0.00,,,0.00,Wunderground v.1.15,2013-01-14 22:05:00,
2013-01-14 16:10:00,46.2,29.1,30.14,NNE,24,2.0,2.0,51,0.00,,,0.00,Wunderground v.1.15,2013-01-14 22:10:00,
2013-01-14 16:20:00,46.0,29.3,30.13,NE,37,1.0,1.0,52,0.00,,,0.00,Wunderground v.1.15,2013-01-14 22:20:00,
2013-01-14 16:25:00,45.7,29.5,30.13,NE,34,0.0,1.0,53,0.00,,,0.00,Wunderground v.1.15,2013-01-14 22:25:00,
2013-01-14 16:35:00,45.4,29.7,30.14,NNE,30,1.0,1.0,54,0.00,,,0.00,Wunderground v.1.15,2013-01-14 22:35:00,
2013-01-14 16:40:00,45.2,30.0,30.14,ENE,59,1.0,1.0,55,0.00,,,0.00,Wunderground v.1.15,2013-01-14 22:40:00,
2013-01-14 16:50:00,44.9,30.1,30.14,NE,37,0.0,1.0,56,0.00,,,0.00,Wunderground v.1.15,2013-01-14 22:50:00,
2013-01-14 16:55:00,44.8,30.0,30.14,NE,42,0.0,1.0,56,0.00,,,0.00,Wunderground v.1.15,2013-01-14 22:55:00,
2013-01-14 17:05:00,44.5,29.8,30.14,NE,37,1.0,2.0,56,0.00,,,0.00,Wunderground v.1.15,2013-01-14 23:05:00,
2013-01-14 17:10:00,44.3,29.1,30.14,NNE,16,2.0,2.0,55,0.00,,,0.00,Wunderground v.1.15,2013-01-14 23:10:00,
2013-01-14 17:20:00,43.9,29.2,30.15,NE,37,1.0,1.0,56,0.00,,,0.00,Wunderground v.1.15,2013-01-14 23:20:00,
2013-01-14 17:25:00,43.9,29.6,30.15,NE,38,0.0,1.0,57,0.00,,,0.00,Wunderground v.1.15,2013-01-14 23:25:00,
2013-01-14 17:35:00,43.5,29.3,30.15,NNE,28,1.0,1.0,57,0.00,,,0.00,Wunderground v.1.15,2013-01-14 23:35:00,
2013-01-14 17:40:00,43.3,29.5,30.15,NNE,30,1.0,1.0,58,0.00,,,0.00,Wunderground v.1.15,2013-01-14 23:40:00,
2013-01-14 17:50:00,43.1,30.1,30.16,NNE,28,0.0,0.0,60,0.00,,,0.00,Wunderground v.1.15,2013-01-14 23:50:00,
2013-01-14 17:55:00,42.6,29.7,30.16,NE,44,0.0,0.0,60,0.00,,,0.00,Wunderground v.1.15,2013-01-14 23:55:00,
2013-01-14 18:05:00,42.2,30.1,30.16,NE,37,3.0,5.0,62,0.00,,,0.00,Wunderground v.1.15,2013-01-15 00:05:00,
2013-01-14 18:10:00,41.9,29.4,30.15,NNE,27,3.0,10.0,61,0.00,,,0.00,Wunderground v.1.15,2013-01-15 00:10:00,
2013-01-14 18:20:00,41.5,29.4,30.15,NNE,32,1.0,1.0,62,0.00,,,0.00,Wunderground v.1.15,2013-01-15 00:20:00,
2013-01-14 18:25:00,41.2,29.2,30.15,NNE,28,0.0,1.0,62,0.00,,,0.00,Wunderground v.1.15,2013-01-15 00:25:00,
2013-01-14 18:35:00,41.1,29.5,30.15,NE,37,1.0,1.0,63,0.00,,,0.00,Wunderground v.1.15,2013-01-15 00:35:00,
2013-01-14 18:40:00,40.8,29.2,30.15,NE,34,2.0,2.0,63,0.00,,,0.00,Wunderground v.1.15,2013-01-15 00:40:00,
2013-01-14 18:50:00,40.5,29.7,30.15,NNE,31,0.0,0.0,65,0.00,,,0.00,Wunderground v.1.15,2013-01-15 00:50:00,
2013-01-14 18:55:00,40.3,29.1,30.15,NNE,30,1.0,1.0,64,0.00,,,0.00,Wunderground v.1.15,2013-01-15 00:55:00,
2013-01-14 19:05:00,40.2,29.4,30.15,NNE,30,2.0,2.0,65,0.00,,,0.00,Wunderground v.1.15,2013-01-15 01:05:00,
2013-01-14 19:10:00,40.2,29.4,30.15,NNE,30,2.0,2.0,65,0.00,,,0.00,Wunderground v.1.15,2013-01-15 01:10:00,
2013-01-14 19:20:00,39.9,29.5,30.15,NNE,20,1.0,8.0,66,0.00,,,0.00,Wunderground v.1.15,2013-01-15 01:20:00,
2013-01-14 19:25:00,39.9,29.1,30.15,NNE,16,3.0,8.0,65,0.00,,,0.00,Wunderground v.1.15,2013-01-15 01:25:00,
2013-01-14 19:35:00,39.8,29.0,30.15,NE,38,0.0,2.0,65,0.00,,,0.00,Wunderground v.1.15,2013-01-15 01:35:00,
2013-01-14 19:40:00,39.6,28.8,30.15,NE,35,1.0,1.0,65,0.00,,,0.00,Wunderground v.1.15,2013-01-15 01:40:00,
2013-01-14 19:50:00,39.5,29.1,30.15,NNE,24,4.0,4.0,66,0.00,,,0.00,Wunderground v.1.15,2013-01-15 01:50:00,
2013-01-14 19:55:00,39.5,29.1,30.15,NNE,27,2.0,4.0,66,0.00,,,0.00,Wunderground v.1.15,2013-01-15 01:55:00,
2013-01-14 20:05:00,39.2,28.8,30.16,NNE,28,0.0,0.0,66,0.00,,,0.00,Wunderground v.1.15,2013-01-15 02:05:00,
2013-01-14 20:10:00,39.2,28.8,30.16,NNE,25,1.0,1.0,66,0.00,,,0.00,Wunderground v.1.15,2013-01-15 02:10:00,
2013-01-14 20:20:00,39.1,28.7,30.15,NNE,30,1.0,1.0,66,0.00,,,0.00,Wunderground v.1.15,2013-01-15 02:20:00,
2013-01-14 20:25:00,38.9,28.9,30.15,NNE,28,0.0,1.0,67,0.00,,,0.00,Wunderground v.1.15,2013-01-15 02:25:00,
2013-01-14 20:35:00,38.8,28.8,30.16,NNE,17,3.0,6.0,67,0.00,,,0.00,Wunderground v.1.15,2013-01-15 02:35:00,
2013-01-14 20:40:00,38.9,28.5,30.16,NNE,23,3.0,3.0,66,0.00,,,0.00,Wunderground v.1.15,2013-01-15 02:40:00,
2013-01-14 20:50:00,39.2,28.8,30.16,NNE,14,5.0,5.0,66,0.00,,,0.00,Wunderground v.1.15,2013-01-15 02:50:00,
2013-01-14 20:55:00,39.3,28.9,30.16,NNE,13,4.0,5.0,66,0.00,,,0.00,Wunderground v.1.15,2013-01-15 02:55:00,
2013-01-14 21:05:00,39.5,29.4,30.15,North,6,2.0,3.0,67,0.00,,,0.00,Wunderground v.1.15,2013-01-15 03:05:00,
2013-01-14 21:10:00,39.5,29.4,30.15,North,7,1.0,1.0,67,0.00,,,0.00,Wunderground v.1.15,2013-01-15 03:10:00,
2013-01-14 21:20:00,39.5,29.8,30.15,North,6,0.0,0.0,68,0.00,,,0.00,Wunderground v.1.15,2013-01-15 03:20:00,
2013-01-14 21:25:00,39.3,29.6,30.16,North,4,0.0,0.0,68,0.00,,,0.00,Wunderground v.1.15,2013-01-15 03:25:00,
2013-01-14 21:35:00,39.2,29.2,30.16,North,4,1.0,5.0,67,0.00,,,0.00,Wunderground v.1.15,2013-01-15 03:35:00,
2013-01-14 21:40:00,39.2,29.2,30.16,North,6,1.0,1.0,67,0.00,,,0.00,Wunderground v.1.15,2013-01-15 03:40:00,
2013-01-14 21:50:00,39.1,29.4,30.15,North,6,1.0,1.0,68,0.00,,,0.00,Wunderground v.1.15,2013-01-15 03:50:00,
2013-01-14 21:55:00,39.1,29.4,30.15,North,7,0.0,1.0,68,0.00,,,0.00,Wunderground v.1.15,2013-01-15 03:55:00,
2013-01-14 22:05:00,39.1,29.8,30.15,North,6,1.0,1.0,69,0.00,,,0.00,Wunderground v.1.15,2013-01-15 04:05:00,
2013-01-14 22:10:00,38.9,29.6,30.15,North,8,1.0,1.0,69,0.00,,,0.00,Wunderground v.1.15,2013-01-15 04:10:00,
2013-01-14 22:20:00,38.9,29.6,30.14,NNE,14,1.0,1.0,69,0.00,,,0.00,Wunderground v.1.15,2013-01-15 04:20:00,
2013-01-14 22:25:00,39.1,29.8,30.14,NNE,14,0.0,1.0,69,0.00,,,0.00,Wunderground v.1.15,2013-01-15 04:25:00,
2013-01-14 22:35:00,39.1,30.1,30.13,NNE,14,2.0,6.0,70,0.00,,,0.00,Wunderground v.1.15,2013-01-15 04:35:00,
2013-01-14 22:40:00,39.1,30.1,30.13,NNE,14,1.0,1.0,70,0.00,,,0.00,Wunderground v.1.15,2013-01-15 04:40:00,
2013-01-14 22:50:00,39.1,30.1,30.11,NNE,25,3.0,7.0,70,0.00,,,0.00,Wunderground v.1.15,2013-01-15 04:50:00,
2013-01-14 22:55:00,39.1,29.8,30.11,NNE,27,4.0,11.0,69,0.00,,,0.00,Wunderground v.1.15,2013-01-15 04:55:00,
2013-01-14 23:05:00,39.2,29.2,30.09,NNE,21,6.0,7.0,67,0.00,,,0.00,Wunderground v.1.15,2013-01-15 05:05:00,
2013-01-14 23:10:00,39.2,29.2,30.09,ENE,68,7.0,7.0,67,0.00,,,0.00,Wunderground v.1.15,2013-01-15 05:10:00,
2013-01-14 23:15:00,39.2,29.2,30.09,ENE,59,7.0,8.0,67,0.00,,,0.00,Wunderground v.1.15,2013-01-15 05:15:00,
2013-01-14 23:20:00,39.2,29.2,30.09,ENE,68,3.0,3.0,67,0.00,,,0.00,Wunderground v.1.15,2013-01-15 05:20:00,
2013-01-14 23:25:00,39.2,28.8,30.09,NE,52,3.0,6.0,66,0.00,,,0.00,Wunderground v.1.15,2013-01-15 05:25:00,
2013-01-14 23:35:00,39.2,29.2,30.09,NE,51,2.0,8.0,67,0.00,,,0.00,Wunderground v.1.15,2013-01-15 05:35:00,
2013-01-14 23:40:00,39.2,29.5,30.09,NE,48,2.0,2.0,68,0.00,,,0.00,Wunderground v.1.15,2013-01-15 05:40:00,
2013-01-14 23:50:00,39.2,29.5,30.10,NE,35,3.0,3.0,68,0.00,,,0.00,Wunderground v.1.15,2013-01-15 05:50:00,
2013-01-14 23:55:00,39.1,29.4,30.11,NNE,30,2.0,3.0,68,0.00,,,0.00,Wunderground v.1.15,2013-01-15 05:55:00,